Time;durP1;ratioP1;P1;durP2;ratioP2;P2;SDS_P1;SDS_P2;PMS_P1;PMS_P2;Temp;Humidity;BMP_temperature;BMP_pressure;BME280_temperature;BME280_humidity;BME280_pressure;Samples;Min_cycle;Max_cycle;Signal;HPM_P1;HPM_P2
2022/10/25 00:02:15;;;;;;;24.60;10.35;;;14.10;99.90;;;;;;5100432;28;20040;-71
2022/10/25 00:04:41;;;;;;;32.28;11.07;;;14.10;99.90;;;;;;5118700;28;20050;-71
2022/10/25 00:07:06;;;;;;;23.92;9.18;;;14.10;99.90;;;;;;5100988;28;20036;-71
2022/10/25 00:09:32;;;;;;;23.70;10.70;;;14.20;99.90;;;;;;5100828;28;20043;-71
2022/10/25 00:11:58;;;;;;;29.88;10.48;;;14.20;99.90;;;;;;5100691;28;20351;-71
2022/10/25 00:14:23;;;;;;;27.88;11.25;;;14.20;99.90;;;;;;5118301;28;20377;-71
2022/10/25 00:16:49;;;;;;;20.80;10.20;;;14.10;99.90;;;;;;5118551;28;20328;-71
2022/10/25 00:19:15;;;;;;;24.35;10.50;;;14.20;99.90;;;;;;5118487;28;20057;-71
2022/10/25 00:21:41;;;;;;;27.92;10.30;;;14.20;99.90;;;;;;5100205;28;20044;-71
2022/10/25 00:24:09;;;;;;;23.75;9.82;;;14.30;99.90;;;;;;5100107;28;20039;-71
2022/10/25 00:26:34;;;;;;;27.67;10.90;;;14.20;99.90;;;;;;5099999;28;20046;-71
2022/10/25 00:29:00;;;;;;;28.25;11.13;;;14.00;99.90;;;;;;5117823;28;20048;-72
2022/10/25 00:31:26;;;;;;;28.30;11.80;;;14.10;99.90;;;;;;5083619;28;20079;-71
2022/10/25 00:33:52;;;;;;;22.98;10.73;;;13.90;99.90;;;;;;5099869;28;20079;-71
2022/10/25 00:36:23;;;;;;;23.67;10.70;;;13.90;99.90;;;;;;5099877;28;20122;-71
2022/10/25 00:38:49;;;;;;;33.10;11.20;;;13.90;99.90;;;;;;5099832;28;20128;-71
2022/10/25 00:41:18;;;;;;;30.25;12.38;;;13.90;99.90;;;;;;5082968;28;20066;-71
2022/10/25 00:43:49;;;;;;;37.17;14.30;;;13.90;99.90;;;;;;5117786;28;20036;-71
2022/10/25 00:46:22;;;;;;;35.10;13.93;;;14.00;99.90;;;;;;5099288;28;20054;-72
2022/10/25 00:48:53;;;;;;;30.75;13.30;;;13.90;99.90;;;;;;5117956;28;20047;-71
2022/10/25 00:51:22;;;;;;;27.38;13.52;;;14.00;99.90;;;;;;5117919;28;20039;-71
2022/10/25 00:53:48;;;;;;;35.13;14.48;;;14.00;99.90;;;;;;5117519;28;20055;-71
2022/10/25 00:56:22;;;;;;;45.72;16.33;;;14.00;99.90;;;;;;5117770;28;20035;-71
2022/10/25 00:58:53;;;;;;;34.70;14.70;;;14.10;99.90;;;;;;5099526;28;20040;-71
2022/10/25 01:01:19;;;;;;;38.83;15.25;;;14.00;99.90;;;;;;5082392;28;20101;-71
2022/10/25 01:03:48;;;;;;;37.70;15.68;;;14.10;99.90;;;;;;5117674;28;20035;-71
2022/10/25 01:06:24;;;;;;;39.92;16.48;;;14.10;99.90;;;;;;5117625;28;20039;-71
2022/10/25 01:08:51;;;;;;;48.55;18.55;;;14.10;99.90;;;;;;5099636;28;20048;-71
2022/10/25 01:11:18;;;;;;;34.20;15.90;;;14.10;99.90;;;;;;5099272;28;20074;-71
2022/10/25 01:13:44;;;;;;;37.58;17.02;;;14.10;99.90;;;;;;5082849;28;20036;-71
2022/10/25 01:16:24;;;;;;;50.88;18.30;;;14.10;99.90;;;;;;5116264;28;20344;-71
2022/10/25 01:19:08;;;;;;;41.03;16.38;;;14.10;99.90;;;;;;5117482;28;20369;-71
2022/10/25 01:21:47;;;;;;;36.72;17.13;;;14.10;99.90;;;;;;5099084;28;20052;-71
2022/10/25 01:24:57;;;;;;;28.40;14.80;;;14.20;99.90;;;;;;5099149;28;20032;-71
2022/10/25 01:27:44;;;;;;;36.20;16.27;;;14.20;99.90;;;;;;5091134;28;20096;-71
2022/10/25 01:30:20;;;;;;;39.75;17.48;;;14.20;99.90;;;;;;5099382;28;20302;-71
2022/10/25 01:32:57;;;;;;;34.45;15.85;;;14.10;99.90;;;;;;5117304;28;20040;-72
2022/10/25 01:35:44;;;;;;;32.72;15.88;;;14.10;99.90;;;;;;5098986;28;20073;-71
2022/10/25 01:38:42;;;;;;;32.70;15.30;;;14.00;99.90;;;;;;5117226;28;20040;-71
2022/10/25 01:41:44;;;;;;;35.97;15.68;;;14.10;99.90;;;;;;5098793;28;20039;-71
2022/10/25 01:44:21;;;;;;;36.35;15.30;;;14.10;99.90;;;;;;4998226;28;20049;-71
2022/10/25 01:46:57;;;;;;;38.08;15.70;;;14.10;99.90;;;;;;5103879;28;20464;-72
2022/10/25 01:49:29;;;;;;;39.65;15.05;;;14.10;99.90;;;;;;5117123;28;20036;-71
2022/10/25 01:51:55;;;;;;;35.38;15.82;;;14.20;99.90;;;;;;5117108;28;20329;-71
2022/10/25 01:54:26;;;;;;;32.63;16.42;;;14.30;99.90;;;;;;5098984;28;20044;-71
2022/10/25 01:57:29;;;;;;;30.25;14.38;;;14.20;99.90;;;;;;5098717;28;20420;-71
2022/10/25 02:00:04;;;;;;;39.95;14.45;;;14.20;99.90;;;;;;5117028;28;20322;-71
2022/10/25 02:02:41;;;;;;;42.42;15.60;;;14.10;99.90;;;;;;5116647;28;20332;-71
2022/10/25 02:05:26;;;;;;;39.88;15.77;;;14.10;99.90;;;;;;5116669;28;20090;-71
2022/10/25 02:08:07;;;;;;;32.53;14.68;;;14.10;99.90;;;;;;5116687;28;20031;-71
2022/10/25 02:11:05;;;;;;;31.00;13.90;;;14.20;99.90;;;;;;5116856;28;20039;-71
2022/10/25 02:13:51;;;;;;;38.00;16.45;;;14.30;99.90;;;;;;5044145;28;20058;-71
2022/10/25 02:16:23;;;;;;;45.03;17.92;;;14.30;99.90;;;;;;5116460;28;20169;-71
2022/10/25 02:18:53;;;;;;;30.80;15.05;;;14.40;99.90;;;;;;5098596;28;20047;-71
2022/10/25 02:21:21;;;;;;;41.55;16.52;;;14.50;99.90;;;;;;5116683;28;20040;-71
2022/10/25 02:23:48;;;;;;;39.25;16.42;;;14.50;99.90;;;;;;5098688;28;20108;-71
2022/10/25 02:26:15;;;;;;;36.78;16.88;;;14.40;99.90;;;;;;5116725;28;20039;-71
2022/10/25 02:28:41;;;;;;;32.17;14.73;;;14.40;99.90;;;;;;5117860;28;20052;-71
2022/10/25 02:31:15;;;;;;;40.90;16.42;;;14.40;99.90;;;;;;5120677;28;20050;-71
2022/10/25 02:33:45;;;;;;;38.95;17.23;;;14.50;99.90;;;;;;5120667;28;20036;-71
2022/10/25 02:36:21;;;;;;;39.88;16.15;;;14.50;99.90;;;;;;5120574;28;20036;-71
2022/10/25 02:38:48;;;;;;;45.25;18.98;;;14.50;99.90;;;;;;5102262;28;20051;-71
2022/10/25 02:41:14;;;;;;;35.40;17.95;;;14.50;99.90;;;;;;5120391;28;20362;-71
2022/10/25 02:43:40;;;;;;;37.67;17.75;;;14.50;99.90;;;;;;5120045;28;20031;-71
2022/10/25 02:46:09;;;;;;;39.35;17.35;;;14.50;99.90;;;;;;5119939;28;20036;-71
2022/10/25 02:48:36;;;;;;;42.45;18.00;;;14.50;99.90;;;;;;5120329;28;20043;-71
2022/10/25 02:51:02;;;;;;;42.53;19.38;;;14.50;99.90;;;;;;5101939;28;20050;-71
2022/10/25 02:53:28;;;;;;;56.05;20.15;;;14.60;99.90;;;;;;5119852;28;20439;-71
2022/10/25 02:56:05;;;;;;;50.47;20.30;;;14.50;99.90;;;;;;5101877;28;20039;-71
2022/10/25 02:58:33;;;;;;;41.08;18.50;;;14.60;99.90;;;;;;5119759;28;20065;-72
2022/10/25 03:00:59;;;;;;;49.65;20.25;;;14.40;99.90;;;;;;5119710;28;20491;-71
2022/10/25 03:03:25;;;;;;;47.25;21.63;;;14.40;99.90;;;;;;5120047;28;20101;-71
2022/10/25 03:05:51;;;;;;;31.80;17.08;;;14.40;99.90;;;;;;5119998;28;20032;-71
2022/10/25 03:08:18;;;;;;;46.13;21.65;;;14.30;99.90;;;;;;5119956;28;20044;-71
2022/10/25 03:10:44;;;;;;;40.40;17.85;;;14.40;99.90;;;;;;5101865;28;20321;-71
2022/10/25 03:13:09;;;;;;;41.25;16.98;;;14.40;99.90;;;;;;5119895;28;20050;-71
2022/10/25 03:15:35;;;;;;;40.00;17.92;;;14.40;99.90;;;;;;5119191;28;20036;-72
2022/10/25 03:18:00;;;;;;;39.95;19.10;;;14.40;99.90;;;;;;5101421;28;20066;-71
2022/10/25 03:20:26;;;;;;;33.72;16.55;;;14.50;99.90;;;;;;5084551;28;20039;-71
2022/10/25 03:22:52;;;;;;;40.03;18.08;;;14.50;99.90;;;;;;5119660;28;20036;-71
2022/10/25 03:25:17;;;;;;;39.00;15.93;;;14.60;99.90;;;;;;5119644;28;20031;-71
2022/10/25 03:27:43;;;;;;;35.33;16.05;;;14.50;99.90;;;;;;5101244;28;20187;-71
2022/10/25 03:30:11;;;;;;;31.63;15.48;;;14.60;99.90;;;;;;5101232;28;20047;-71
2022/10/25 03:32:36;;;;;;;28.15;12.63;;;14.60;99.90;;;;;;5119525;28;20064;-71
2022/10/25 03:35:02;;;;;;;34.47;13.73;;;14.70;99.90;;;;;;5084226;28;20068;-71
2022/10/25 03:37:28;;;;;;;26.52;12.52;;;14.70;99.90;;;;;;5119382;28;20043;-71
2022/10/25 03:39:53;;;;;;;26.02;12.15;;;14.70;99.90;;;;;;5118900;28;20040;-71
2022/10/25 03:42:19;;;;;;;28.60;12.02;;;14.70;99.90;;;;;;5100921;28;20044;-71
2022/10/25 03:44:45;;;;;;;33.78;11.80;;;14.70;99.90;;;;;;5100636;28;20164;-71
2022/10/25 03:47:10;;;;;;;25.13;10.05;;;14.70;99.90;;;;;;5118919;28;20080;-71
2022/10/25 03:49:36;;;;;;;24.95;11.95;;;14.50;99.90;;;;;;5101116;28;20051;-71
2022/10/25 03:52:02;;;;;;;33.15;13.27;;;14.50;99.90;;;;;;5100762;28;20471;-71
2022/10/25 03:54:27;;;;;;;31.52;13.13;;;14.50;99.90;;;;;;5100688;28;20054;-71
2022/10/25 03:56:53;;;;;;;25.10;12.38;;;14.60;99.90;;;;;;5119261;28;20077;-71
2022/10/25 03:59:19;;;;;;;32.42;13.85;;;14.60;99.90;;;;;;5118649;28;20054;-71
2022/10/25 04:01:44;;;;;;;42.42;15.65;;;14.50;99.90;;;;;;5118800;28;20036;-71
2022/10/25 04:04:10;;;;;;;36.40;14.23;;;14.50;99.90;;;;;;5100419;28;20027;-71
2022/10/25 04:06:35;;;;;;;26.98;12.85;;;14.50;99.90;;;;;;5083731;28;20043;-71
2022/10/25 04:09:01;;;;;;;35.72;16.45;;;14.50;99.90;;;;;;5100528;28;20104;-71
2022/10/25 04:11:27;;;;;;;41.95;15.60;;;14.40;99.90;;;;;;5100551;28;20432;-71
2022/10/25 04:13:52;;;;;;;46.22;16.75;;;14.40;99.90;;;;;;5100578;28;20324;-71
2022/10/25 04:16:18;;;;;;;37.97;15.63;;;14.40;99.90;;;;;;5099928;28;20103;-71
2022/10/25 04:18:44;;;;;;;52.42;17.65;;;14.40;99.90;;;;;;5118308;28;20042;-71
2022/10/25 04:21:09;;;;;;;37.47;15.82;;;14.40;99.90;;;;;;5118432;28;20413;-71
2022/10/25 04:23:35;;;;;;;47.60;16.92;;;14.40;99.90;;;;;;5118101;28;20104;-71
2022/10/25 04:26:01;;;;;;;31.98;14.50;;;14.30;99.90;;;;;;5100396;28;20048;-71
2022/10/25 04:28:26;;;;;;;50.97;17.30;;;14.40;99.90;;;;;;5117987;28;20051;-71
2022/10/25 04:30:52;;;;;;;42.80;15.32;;;14.40;99.90;;;;;;5118287;28;20039;-71
2022/10/25 04:33:18;;;;;;;58.92;17.92;;;14.30;99.90;;;;;;5117945;28;20046;-71
2022/10/25 04:35:50;;;;;;;48.17;15.65;;;14.30;99.90;;;;;;5117875;28;20043;-71
2022/10/25 04:38:16;;;;;;;29.92;12.55;;;14.30;99.90;;;;;;5099945;28;20108;-71
2022/10/25 04:40:42;;;;;;;35.08;14.38;;;14.30;99.90;;;;;;5100136;28;20084;-71
2022/10/25 04:43:07;;;;;;;43.20;15.25;;;14.40;99.90;;;;;;5118074;28;20051;-71
2022/10/25 04:45:33;;;;;;;35.05;13.10;;;14.40;99.90;;;;;;5117647;28;20063;-71
2022/10/25 04:47:59;;;;;;;34.40;13.90;;;14.30;99.90;;;;;;5117681;28;20474;-71
2022/10/25 04:50:24;;;;;;;44.25;15.75;;;14.40;99.90;;;;;;5117489;28;20043;-71
2022/10/25 04:52:50;;;;;;;26.05;12.63;;;14.50;99.90;;;;;;5099328;28;20095;-70
2022/10/25 04:55:16;;;;;;;42.97;13.60;;;14.40;99.90;;;;;;5100130;28;20036;-71
2022/10/25 04:57:41;;;;;;;48.85;15.60;;;14.40;99.90;;;;;;5117527;28;20067;-70
2022/10/25 05:00:08;;;;;;;45.63;13.80;;;14.40;99.90;;;;;;5117486;28;20077;-71
2022/10/25 05:02:33;;;;;;;36.70;13.65;;;14.40;99.90;;;;;;5117722;28;20035;-71
2022/10/25 05:04:59;;;;;;;33.95;12.60;;;14.40;99.90;;;;;;5117453;28;20043;-71
2022/10/25 05:07:24;;;;;;;42.75;15.50;;;14.50;99.90;;;;;;5117644;28;20092;-71
2022/10/25 05:09:50;;;;;;;29.40;12.40;;;14.50;99.90;;;;;;5117625;28;20036;-71
2022/10/25 05:12:16;;;;;;;36.22;12.43;;;14.50;99.90;;;;;;5099310;28;20047;-71
2022/10/25 05:14:41;;;;;;;28.70;12.68;;;14.30;99.90;;;;;;5099290;28;20043;-71
2022/10/25 05:17:07;;;;;;;38.45;14.50;;;14.30;99.90;;;;;;5099092;28;20050;-71
2022/10/25 05:19:33;;;;;;;32.83;13.07;;;14.30;99.90;;;;;;5117414;28;20043;-71
2022/10/25 05:21:58;;;;;;;45.28;16.02;;;14.40;99.90;;;;;;5117100;28;20040;-71
2022/10/25 05:24:24;;;;;;;39.47;14.85;;;14.50;99.90;;;;;;5117140;28;20340;-71
2022/10/25 05:26:50;;;;;;;49.72;16.65;;;14.50;99.90;;;;;;5099516;28;20039;-71
2022/10/25 05:29:15;;;;;;;42.45;14.10;;;14.50;99.90;;;;;;5116980;28;20039;-71
2022/10/25 05:31:41;;;;;;;53.80;17.25;;;14.60;99.90;;;;;;5082284;28;20498;-71
2022/10/25 05:34:09;;;;;;;52.03;17.52;;;14.60;99.90;;;;;;5116978;28;20043;-71
2022/10/25 05:36:34;;;;;;;45.53;17.30;;;14.70;99.90;;;;;;5117260;28;20047;-71
2022/10/25 05:39:00;;;;;;;58.08;18.63;;;14.70;99.90;;;;;;5116972;28;20039;-71
2022/10/25 05:41:26;;;;;;;63.33;20.05;;;14.60;99.90;;;;;;5117046;28;20325;-71
2022/10/25 05:43:52;;;;;;;48.90;18.35;;;14.70;99.90;;;;;;5098795;28;20040;-71
2022/10/25 05:46:20;;;;;;;46.58;17.75;;;14.70;99.90;;;;;;5116349;28;20122;-71
2022/10/25 05:48:47;;;;;;;40.28;15.73;;;14.80;99.90;;;;;;5117137;28;20039;-71
2022/10/25 05:51:15;;;;;;;51.42;17.25;;;14.70;99.90;;;;;;5116975;28;20130;-71
2022/10/25 05:53:43;;;;;;;36.20;15.95;;;14.80;99.90;;;;;;5098729;28;20104;-71
2022/10/25 05:56:09;;;;;;;42.10;14.38;;;14.80;99.90;;;;;;5117012;28;20073;-71
2022/10/25 05:58:35;;;;;;;35.30;13.80;;;14.80;99.90;;;;;;5117023;28;20063;-71
2022/10/25 06:01:00;;;;;;;29.23;12.40;;;14.70;99.90;;;;;;5116911;28;20039;-71
2022/10/25 06:03:26;;;;;;;47.45;14.70;;;14.70;99.90;;;;;;5101968;28;20043;-71
2022/10/25 06:05:52;;;;;;;41.40;14.82;;;14.70;99.90;;;;;;5121145;28;20049;-71
2022/10/25 06:08:17;;;;;;;36.80;14.63;;;14.70;99.90;;;;;;5102777;28;20340;-71
2022/10/25 06:10:43;;;;;;;38.13;13.27;;;14.70;99.90;;;;;;5121090;28;20035;-71
2022/10/25 06:13:09;;;;;;;45.30;13.70;;;14.70;99.90;;;;;;5120997;28;20118;-71
2022/10/25 06:15:37;;;;;;;37.47;12.93;;;14.70;99.90;;;;;;5120549;28;20081;-71
2022/10/25 06:18:03;;;;;;;36.70;13.35;;;14.50;99.90;;;;;;5120636;28;20437;-71
2022/10/25 06:20:29;;;;;;;38.97;13.55;;;14.50;99.90;;;;;;5120827;28;20040;-71
2022/10/25 06:22:54;;;;;;;28.17;12.50;;;14.50;99.90;;;;;;5085938;28;20040;-71
2022/10/25 06:25:20;;;;;;;39.95;13.57;;;14.50;99.90;;;;;;5120486;28;20043;-71
2022/10/25 06:27:46;;;;;;;41.67;13.63;;;14.60;99.90;;;;;;5120556;28;20052;-71
2022/10/25 06:30:11;;;;;;;42.03;12.63;;;14.70;99.90;;;;;;5102372;28;20433;-71
2022/10/25 06:32:37;;;;;;;35.05;11.73;;;14.70;99.90;;;;;;5102280;28;20047;-71
2022/10/25 06:35:04;;;;;;;35.10;12.63;;;14.70;99.90;;;;;;5102557;28;20047;-71
2022/10/25 06:37:29;;;;;;;38.03;13.07;;;14.60;99.90;;;;;;5102226;28;20437;-71
2022/10/25 06:39:55;;;;;;;42.38;15.70;;;14.60;99.90;;;;;;5102523;28;20048;-71
2022/10/25 06:42:20;;;;;;;26.38;11.30;;;14.60;99.90;;;;;;5120131;28;20043;-71
2022/10/25 06:44:46;;;;;;;33.30;11.27;;;14.50;99.90;;;;;;5120531;28;20031;-71
2022/10/25 06:47:12;;;;;;;30.42;12.07;;;14.40;99.90;;;;;;5120012;28;20039;-71
2022/10/25 06:49:37;;;;;;;34.40;11.60;;;14.50;99.90;;;;;;5102018;28;20049;-71
2022/10/25 06:52:03;;;;;;;25.55;10.43;;;14.50;99.90;;;;;;5102008;28;20046;-71
2022/10/25 06:54:29;;;;;;;41.22;13.05;;;14.50;99.90;;;;;;5120298;28;20069;-71
2022/10/25 06:56:54;;;;;;;38.33;11.98;;;14.50;99.90;;;;;;5102369;28;20332;-71
2022/10/25 06:59:20;;;;;;;25.75;10.30;;;14.50;99.90;;;;;;5101891;28;20475;-71
2022/10/25 07:01:46;;;;;;;24.52;9.43;;;14.40;99.90;;;;;;5120048;28;20043;-71
2022/10/25 07:04:12;;;;;;;26.73;9.18;;;14.50;99.90;;;;;;5101741;28;20374;-71
2022/10/25 07:06:38;;;;;;;32.22;10.75;;;14.50;99.90;;;;;;5119778;28;20047;-71
2022/10/25 07:09:05;;;;;;;23.42;8.88;;;14.60;99.90;;;;;;5101661;28;20032;-71
2022/10/25 07:11:31;;;;;;;28.45;8.35;;;14.60;99.90;;;;;;5101854;28;20043;-70
2022/10/25 07:13:58;;;;;;;28.85;8.75;;;14.50;99.90;;;;;;5118996;28;20085;-72
2022/10/25 07:16:25;;;;;;;37.58;9.10;;;14.60;99.90;;;;;;5119816;28;20035;-72
2022/10/25 07:18:51;;;;;;;31.63;9.20;;;14.70;99.90;;;;;;5119460;28;20444;-72
2022/10/25 07:21:21;;;;;;;40.47;10.45;;;14.70;99.90;;;;;;5119383;28;20461;-72
2022/10/25 07:23:49;;;;;;;33.45;9.93;;;14.60;99.90;;;;;;5119638;28;20043;-72
2022/10/25 07:26:20;;;;;;;25.60;8.82;;;14.60;99.90;;;;;;5119677;28;20032;-72
2022/10/25 07:28:48;;;;;;;31.05;9.60;;;14.70;99.90;;;;;;5119532;28;20067;-72
2022/10/25 07:31:16;;;;;;;27.95;8.10;;;14.70;99.90;;;;;;5119501;28;20058;-72
2022/10/25 07:33:42;;;;;;;23.15;8.00;;;14.70;99.90;;;;;;5119477;28;20042;-72
2022/10/25 07:36:08;;;;;;;22.95;7.22;;;14.70;99.90;;;;;;5119430;28;20044;-72
2022/10/25 07:38:34;;;;;;;23.70;7.65;;;14.60;99.90;;;;;;5119401;28;20039;-72
2022/10/25 07:41:00;;;;;;;21.95;7.65;;;14.60;99.90;;;;;;5118968;28;20048;-72
2022/10/25 07:43:26;;;;;;;23.15;8.05;;;14.50;99.90;;;;;;5119293;28;20038;-72
2022/10/25 07:45:52;;;;;;;33.35;9.52;;;14.60;99.90;;;;;;5118553;28;20040;-72
2022/10/25 07:48:18;;;;;;;29.67;9.63;;;14.60;99.90;;;;;;5119170;28;20092;-72
2022/10/25 07:50:44;;;;;;;24.10;8.85;;;14.50;99.90;;;;;;5118854;28;20047;-72
2022/10/25 07:53:09;;;;;;;30.58;8.90;;;14.60;99.90;;;;;;5101085;28;20040;-72
2022/10/25 07:55:35;;;;;;;29.90;9.05;;;14.70;99.90;;;;;;5119074;28;20040;-72
2022/10/25 07:58:03;;;;;;;25.60;8.32;;;14.80;99.90;;;;;;5118986;28;20314;-72
2022/10/25 08:00:29;;;;;;;39.10;9.93;;;14.80;99.90;;;;;;5118906;28;20039;-76
2022/10/25 08:02:55;;;;;;;23.77;8.20;;;14.80;99.90;;;;;;5100497;28;20391;-73
2022/10/25 08:05:22;;;;;;;26.83;7.75;;;14.90;99.90;;;;;;5100784;28;20039;-74
2022/10/25 08:07:49;;;;;;;24.80;7.80;;;14.80;99.90;;;;;;5100564;28;20114;-74
2022/10/25 08:10:18;;;;;;;23.90;8.05;;;14.70;99.90;;;;;;5122239;28;20039;-73
2022/10/25 08:12:43;;;;;;;29.40;8.77;;;14.80;99.90;;;;;;5118679;28;20305;-71
2022/10/25 08:15:09;;;;;;;21.90;8.40;;;14.90;99.90;;;;;;5117980;28;20084;-73
2022/10/25 08:17:35;;;;;;;28.92;8.30;;;14.90;99.90;;;;;;5100683;28;20092;-73
2022/10/25 08:20:01;;;;;;;22.25;7.10;;;14.90;99.90;;;;;;5100327;28;20055;-73
2022/10/25 08:22:26;;;;;;;20.35;8.52;;;15.00;99.90;;;;;;5118459;28;20044;-73
2022/10/25 08:24:52;;;;;;;28.50;9.10;;;15.10;99.90;;;;;;5118472;28;20536;-73
2022/10/25 08:27:18;;;;;;;28.98;8.55;;;15.00;99.90;;;;;;5118289;28;20438;-73
2022/10/25 08:29:43;;;;;;;27.92;8.35;;;15.00;99.90;;;;;;5117964;28;20051;-72
2022/10/25 08:32:09;;;;;;;30.10;8.90;;;15.10;99.90;;;;;;5118306;28;20038;-73
2022/10/25 08:34:34;;;;;;;34.17;9.90;;;15.20;99.90;;;;;;5118387;28;20096;-72
2022/10/25 08:37:00;;;;;;;33.50;9.32;;;15.20;99.90;;;;;;5118206;28;20420;-73
2022/10/25 08:39:26;;;;;;;32.25;9.98;;;15.30;99.90;;;;;;5099911;28;20044;-72
2022/10/25 08:41:54;;;;;;;33.65;10.50;;;15.30;99.90;;;;;;5117789;28;20075;-73
2022/10/25 08:44:57;;;;;;;37.13;10.45;;;15.30;99.90;;;;;;5118076;28;20035;-73
2022/10/25 08:47:40;;;;;;;38.55;10.98;;;15.30;99.90;;;;;;5117979;28;20077;-73
2022/10/25 08:50:10;;;;;;;27.40;10.15;;;15.20;99.90;;;;;;5117821;28;20040;-72
2022/10/25 08:52:46;;;;;;;43.05;11.07;;;15.20;99.90;;;;;;5117941;28;20058;-72
2022/10/25 08:55:28;;;;;;;38.33;11.20;;;15.20;99.90;;;;;;5117936;28;20118;-72
2022/10/25 08:57:55;;;;;;;29.75;10.68;;;15.20;99.90;;;;;;5117879;28;20066;-72
2022/10/25 09:00:23;;;;;;;31.50;10.80;;;15.30;99.90;;;;;;5099732;28;20048;-72
2022/10/25 09:02:54;;;;;;;26.95;9.73;;;15.40;99.90;;;;;;5117751;28;20051;-76
2022/10/25 09:05:34;;;;;;;28.50;11.30;;;15.40;99.90;;;;;;5117852;28;20035;-71
2022/10/25 09:08:03;;;;;;;34.80;11.70;;;15.30;99.90;;;;;;5117833;28;20040;-71
2022/10/25 09:10:36;;;;;;;25.60;10.30;;;15.50;99.90;;;;;;5117459;28;20436;-71
2022/10/25 09:13:16;;;;;;;31.25;10.05;;;15.50;99.90;;;;;;5117774;28;20039;-71
2022/10/25 09:16:22;;;;;;;25.42;9.35;;;15.50;99.90;;;;;;5117304;28;20046;-71
2022/10/25 09:18:54;;;;;;;26.10;9.63;;;15.50;99.90;;;;;;5061663;28;20051;-71
2022/10/25 09:21:22;;;;;;;27.05;9.48;;;15.70;99.90;;;;;;5117519;28;20169;-71
2022/10/25 09:24:00;;;;;;;28.73;10.82;;;15.70;99.90;;;;;;5117273;28;20363;-71
2022/10/25 09:26:39;;;;;;;26.15;9.52;;;15.80;99.90;;;;;;5117560;28;20032;-71
2022/10/25 09:29:23;;;;;;;27.40;10.10;;;15.80;99.90;;;;;;5117179;28;20336;-71
2022/10/25 09:31:53;;;;;;;27.10;9.63;;;15.90;99.90;;;;;;5117472;28;20378;-71
2022/10/25 09:34:21;;;;;;;34.20;9.55;;;15.90;99.90;;;;;;5117143;28;20040;-71
2022/10/25 09:36:49;;;;;;;27.27;8.95;;;15.90;99.90;;;;;;5116775;28;20093;-71
2022/10/25 09:39:44;;;;;;;29.02;7.72;;;15.90;99.90;;;;;;5117405;28;20028;-71
2022/10/25 09:42:24;;;;;;;23.65;7.32;;;15.90;99.90;;;;;;5114279;28;20047;-71
2022/10/25 09:45:00;;;;;;;19.38;6.97;;;15.90;99.90;;;;;;5117336;28;20039;-71
2022/10/25 09:47:42;;;;;;;24.50;7.30;;;16.00;99.90;;;;;;5117186;28;20044;-71
2022/10/25 09:50:26;;;;;;;19.65;5.75;;;16.00;99.90;;;;;;5117299;28;20040;-71
2022/10/25 09:53:10;;;;;;;26.95;6.10;;;16.20;99.90;;;;;;5117217;28;20046;-71
2022/10/25 09:55:39;;;;;;;17.25;5.65;;;16.10;99.90;;;;;;5117272;28;20067;-71
2022/10/25 09:58:08;;;;;;;23.45;7.05;;;16.20;99.90;;;;;;5117157;28;20128;-71
2022/10/25 10:00:38;;;;;;;26.17;6.20;;;16.10;99.90;;;;;;5117065;28;20028;-71
2022/10/25 10:03:03;;;;;;;16.70;6.10;;;16.20;99.90;;;;;;5099194;28;20044;-71
2022/10/25 10:05:30;;;;;;;23.35;5.20;;;16.30;99.90;;;;;;5116770;28;20089;-71
2022/10/25 10:07:56;;;;;;;20.27;5.80;;;16.10;99.90;;;;;;5116864;28;20118;-71
2022/10/25 10:10:25;;;;;;;24.85;5.85;;;16.20;99.90;;;;;;5117091;28;20074;-71
2022/10/25 10:12:56;;;;;;;22.55;5.40;;;16.30;99.90;;;;;;5117103;28;20040;-71
2022/10/25 10:15:29;;;;;;;27.88;6.13;;;16.40;99.90;;;;;;5116621;28;20328;-71
2022/10/25 10:18:20;;;;;;;20.40;4.90;;;16.50;99.90;;;;;;5116980;28;20031;-71
2022/10/25 10:21:00;;;;;;;17.35;4.68;;;16.70;99.90;;;;;;5116652;28;20051;-71
2022/10/25 10:23:48;;;;;;;24.30;5.10;;;16.70;99.90;;;;;;5117566;28;20031;-71
2022/10/25 10:26:22;;;;;;;15.07;4.72;;;16.70;99.90;;;;;;5098714;28;20309;-71
2022/10/25 10:28:51;;;;;;;20.80;4.57;;;16.70;99.90;;;;;;5098657;28;20060;-71
2022/10/25 10:31:18;;;;;;;14.82;4.15;;;16.70;99.90;;;;;;5116899;28;20101;-71
2022/10/25 10:33:50;;;;;;;15.73;4.25;;;17.00;99.90;;;;;;5116923;28;20044;-71
2022/10/25 10:36:28;;;;;;;19.80;4.15;;;17.10;99.90;;;;;;5116842;28;20101;-71
2022/10/25 10:39:11;;;;;;;14.70;3.63;;;17.20;99.90;;;;;;5116773;28;20127;-71
2022/10/25 10:41:50;;;;;;;12.77;3.22;;;17.30;99.90;;;;;;5116809;28;20040;-71
2022/10/25 10:44:16;;;;;;;18.67;3.58;;;17.60;99.90;;;;;;5116527;28;20431;-71
2022/10/25 10:46:45;;;;;;;13.18;2.80;;;17.80;99.90;;;;;;5116014;28;20035;-71
2022/10/25 10:49:11;;;;;;;13.45;3.38;;;18.20;99.90;;;;;;5099682;28;20067;-71
2022/10/25 10:51:41;;;;;;;19.65;3.85;;;18.50;99.90;;;;;;5120476;28;20078;-71
2022/10/25 10:54:46;;;;;;;14.48;2.83;;;18.80;99.90;;;;;;5120471;28;20063;-71
2022/10/25 10:57:25;;;;;;;12.50;2.80;;;18.90;99.90;;;;;;5001432;28;20088;-71
2022/10/25 10:59:54;;;;;;;10.02;2.17;;;18.70;99.90;;;;;;5017769;28;20335;-71
2022/10/25 11:02:22;;;;;;;21.67;3.10;;;18.40;99.90;;;;;;5077501;28;20437;-71
2022/10/25 11:04:53;;;;;;;12.35;2.38;;;18.30;99.90;;;;;;5120219;28;20118;-71
2022/10/25 11:07:26;;;;;;;13.32;2.30;;;18.40;99.90;;;;;;5102146;28;20079;-71
2022/10/25 11:09:51;;;;;;;11.50;2.63;;;18.50;99.90;;;;;;5120179;28;20147;-71
2022/10/25 11:12:17;;;;;;;11.80;2.72;;;18.50;99.90;;;;;;5120142;28;20057;-71
2022/10/25 11:14:43;;;;;;;13.00;2.75;;;18.60;99.90;;;;;;5120012;28;20039;-71
2022/10/25 11:17:11;;;;;;;12.85;2.55;;;18.60;99.90;;;;;;5119592;28;20110;-71
2022/10/25 11:20:12;;;;;;;13.13;2.60;;;18.40;99.90;;;;;;5119956;28;20044;-71
2022/10/25 11:23:02;;;;;;;12.15;2.80;;;18.30;99.90;;;;;;5119851;28;20048;-71
2022/10/25 11:25:45;;;;;;;17.45;3.00;;;18.30;99.90;;;;;;5119579;28;20445;-71
2022/10/25 11:28:17;;;;;;;13.63;3.20;;;18.40;99.90;;;;;;5119390;28;20429;-71
2022/10/25 11:31:05;;;;;;;8.32;3.05;;;18.50;99.90;;;;;;5119461;28;20079;-71
2022/10/25 11:34:02;;;;;;;13.90;2.80;;;18.20;99.90;;;;;;5119686;28;20027;-72
2022/10/25 11:36:57;;;;;;;13.60;2.70;;;18.10;99.90;;;;;;5099757;28;20043;-72
2022/10/25 11:39:54;;;;;;;15.18;3.10;;;18.10;99.90;;;;;;5102260;28;20032;-72
2022/10/25 11:42:48;;;;;;;15.48;2.38;;;17.80;99.90;;;;;;5085547;28;20040;-72
2022/10/25 11:45:20;;;;;;;12.45;2.60;;;17.70;99.90;;;;;;5109449;28;20361;-72
2022/10/25 11:48:37;;;;;;;10.32;2.83;;;18.00;99.90;;;;;;5119168;28;20329;-72
2022/10/25 11:51:16;;;;;;;9.68;2.47;;;18.10;99.90;;;;;;5016576;28;20196;-72
2022/10/25 11:53:57;;;;;;;13.75;2.63;;;18.00;99.90;;;;;;5000113;28;20060;-73
2022/10/25 11:56:32;;;;;;;8.98;2.60;;;17.50;99.90;;;;;;5075200;28;20051;-73
2022/10/25 11:59:12;;;;;;;14.63;3.10;;;17.50;99.90;;;;;;5103327;28;20083;-86
2022/10/25 12:01:50;;;;;;;7.88;2.20;;;17.70;99.90;;;;;;5115158;28;20066;-78
2022/10/25 12:04:46;;;;;;;9.07;2.67;;;17.90;99.90;;;;;;5098801;28;20031;-77
2022/10/25 12:07:28;;;;;;;12.30;2.58;;;18.40;99.90;;;;;;5117194;28;20043;-83
2022/10/25 12:10:03;;;;;;;9.70;2.50;;;18.90;99.90;;;;;;5117778;28;20138;-80
2022/10/25 12:12:51;;;;;;;10.32;2.50;;;18.90;99.90;;;;;;5118735;28;20152;-81
2022/10/25 12:15:39;;;;;;;10.35;2.63;;;18.90;99.90;;;;;;5118022;28;20039;-81
2022/10/25 12:18:08;;;;;;;11.40;2.83;;;19.10;99.90;;;;;;5100775;28;20332;-80
2022/10/25 12:20:35;;;;;;;13.82;2.20;;;18.80;99.60;;;;;;5100523;28;20360;-81
2022/10/25 12:23:04;;;;;;;13.02;2.63;;;18.60;99.90;;;;;;5118603;28;20054;-80
2022/10/25 12:25:47;;;;;;;8.02;1.73;;;18.70;99.90;;;;;;5118554;28;20100;-80
2022/10/25 12:28:26;;;;;;;14.13;2.05;;;18.30;99.60;;;;;;5083029;28;20047;-81
2022/10/25 12:31:31;;;;;;;12.65;2.10;;;18.70;99.90;;;;;;5118484;28;20404;-80
2022/10/25 12:34:18;;;;;;;9.55;1.70;;;18.70;99.90;;;;;;5056678;28;20048;-80
2022/10/25 12:36:54;;;;;;;13.27;2.17;;;18.20;99.90;;;;;;5100306;28;20169;-80
2022/10/25 12:39:37;;;;;;;6.10;1.52;;;18.00;99.90;;;;;;5100371;28;20088;-81
2022/10/25 12:42:16;;;;;;;10.50;2.38;;;18.00;99.90;;;;;;5099895;28;20332;-80
2022/10/25 12:45:09;;;;;;;11.85;2.03;;;18.30;99.90;;;;;;5100876;28;20039;-91
2022/10/25 12:47:54;;;;;;;9.82;2.17;;;18.40;99.90;;;;;;5100254;28;20122;-90
2022/10/25 12:50:41;;;;;;;14.70;1.70;;;19.00;99.90;;;;;;5100205;28;20301;-79
2022/10/25 12:53:48;;;;;;;10.57;1.83;;;19.10;99.10;;;;;;5099827;28;20032;-80